createdAt,value
2023-05-14T00:00:28.775Z,10.33
2023-05-14T00:03:17.369Z,10.97
2023-05-14T00:06:06.380Z,9.70
2023-05-14T00:08:54.851Z,10.40
2023-05-14T00:11:43.478Z,10.53
2023-05-14T00:14:33.432Z,9.77
2023-05-14T00:17:22.091Z,10.73
2023-05-14T00:20:12.231Z,9.97
2023-05-14T00:23:00.707Z,13.23
2023-05-14T00:25:49.312Z,10.50
2023-05-14T00:28:37.788Z,10.73
2023-05-14T00:31:27.861Z,10.93
2023-05-14T00:34:16.632Z,11.70
2023-05-14T00:37:05.651Z,10.17
2023-05-14T00:39:54.199Z,10.97
2023-05-14T00:42:42.778Z,10.73
2023-05-14T00:45:31.362Z,11.33
2023-05-14T00:48:21.995Z,10.43
2023-05-14T00:51:10.872Z,10.50
2023-05-14T00:53:59.447Z,11.07
2023-05-14T00:56:48.445Z,11.33
2023-05-14T00:59:36.896Z,10.60
2023-05-14T01:02:25.597Z,10.87
2023-05-14T01:05:15.588Z,11.63
2023-05-14T01:08:10.626Z,10.83
2023-05-14T01:11:06.166Z,10.70
2023-05-14T01:14:00.333Z,9.83
2023-05-14T01:16:49.780Z,10.13
2023-05-14T01:19:41.719Z,13.40
2023-05-14T01:22:31.601Z,10.27
2023-05-14T01:25:20.199Z,10.50
2023-05-14T01:28:13.562Z,10.97
2023-05-14T01:31:05.123Z,10.53
2023-05-14T01:33:54.296Z,10.53
2023-05-14T01:36:43.429Z,10.23
2023-05-14T01:39:34.022Z,12.13
2023-05-14T01:42:22.677Z,10.20
2023-05-14T01:45:11.850Z,9.57
2023-05-14T01:48:00.446Z,9.80
2023-05-14T01:50:48.943Z,9.63
2023-05-14T01:53:37.415Z,10.20
2023-05-14T01:56:27.302Z,10.60
2023-05-14T01:59:16.061Z,12.00
2023-05-14T02:02:04.640Z,10.53
2023-05-14T02:04:53.156Z,11.40
2023-05-14T02:07:41.702Z,9.87
2023-05-14T02:10:30.132Z,10.60
2023-05-14T02:13:20.590Z,11.43
2023-05-14T02:16:09.694Z,10.47
2023-05-14T02:18:58.613Z,9.77
2023-05-14T02:21:47.223Z,9.33
2023-05-14T02:24:36.019Z,10.50
2023-05-14T02:27:24.540Z,10.50
2023-05-14T02:30:14.839Z,10.73
2023-05-14T02:33:03.364Z,11.23
2023-05-14T02:35:51.935Z,10.73
2023-05-14T02:38:40.448Z,10.80
2023-05-14T02:41:28.912Z,10.80
2023-05-14T02:44:17.424Z,10.53
2023-05-14T02:47:07.595Z,10.57
2023-05-14T02:49:56.141Z,9.97
2023-05-14T02:52:44.654Z,11.50
2023-05-14T02:55:33.197Z,10.63
2023-05-14T02:58:28.239Z,10.30
2023-05-14T03:01:18.771Z,10.20
2023-05-14T03:04:09.107Z,10.60
2023-05-14T03:06:57.620Z,9.50
2023-05-14T03:09:46.183Z,10.57
2023-05-14T03:12:34.691Z,11.00
2023-05-14T03:15:23.405Z,10.50
2023-05-14T03:18:11.912Z,10.50
2023-05-14T03:21:01.754Z,10.60
2023-05-14T03:23:50.625Z,10.33
2023-05-14T03:26:39.179Z,11.20
2023-05-14T03:29:27.686Z,10.13
2023-05-14T03:32:16.520Z,10.07
2023-05-14T03:35:05.697Z,11.83
2023-05-14T03:37:58.232Z,11.90
2023-05-14T03:40:47.092Z,11.60
2023-05-14T03:43:35.584Z,10.50
2023-05-14T03:46:24.145Z,10.90
2023-05-14T03:49:12.694Z,10.30
2023-05-14T03:52:01.209Z,11.00
2023-05-14T03:54:51.000Z,10.10
2023-05-14T03:57:39.808Z,10.60
2023-05-14T04:00:28.295Z,9.73
2023-05-14T04:03:16.980Z,10.87
2023-05-14T04:06:06.241Z,10.17
2023-05-14T04:08:54.710Z,10.13
2023-05-14T04:11:44.594Z,10.00
2023-05-14T04:14:33.137Z,10.13
2023-05-14T04:17:21.863Z,10.43
2023-05-14T04:20:11.232Z,11.30
2023-05-14T04:23:00.151Z,10.40
2023-05-14T04:25:48.647Z,11.23
2023-05-14T04:28:38.475Z,11.27
2023-05-14T04:31:27.024Z,10.23
2023-05-14T04:34:15.997Z,10.47
2023-05-14T04:37:04.923Z,10.10
2023-05-14T04:39:53.368Z,10.57
2023-05-14T04:42:41.802Z,11.10
2023-05-14T04:45:34.216Z,11.33
2023-05-14T04:48:22.931Z,10.23
2023-05-14T04:51:11.432Z,10.17
2023-05-14T04:53:59.998Z,11.07
2023-05-14T04:56:48.653Z,9.63
2023-05-14T04:59:37.089Z,10.27
2023-05-14T05:02:26.974Z,10.90
2023-05-14T05:05:15.881Z,9.20
2023-05-14T05:08:04.609Z,10.30
2023-05-14T05:10:53.345Z,10.20
2023-05-14T05:13:42.079Z,11.00
2023-05-14T05:16:30.581Z,11.40
2023-05-14T05:19:26.561Z,10.50
2023-05-14T05:22:21.261Z,9.63
2023-05-14T05:25:12.068Z,10.00
2023-05-14T05:28:00.719Z,9.40
2023-05-14T05:30:49.267Z,8.93
2023-05-14T05:33:38.116Z,9.90
2023-05-14T05:36:28.680Z,9.50
2023-05-14T05:39:17.148Z,8.53
2023-05-14T05:42:07.187Z,9.17
2023-05-14T05:44:56.271Z,9.00
2023-05-14T05:47:44.784Z,8.80
2023-05-14T05:50:33.308Z,8.50
2023-05-14T05:53:23.186Z,9.80
2023-05-14T05:56:11.678Z,7.80
2023-05-14T05:59:00.172Z,8.40
2023-05-14T06:01:48.690Z,8.80
2023-05-14T06:04:37.445Z,9.63
2023-05-14T06:07:26.177Z,8.03
2023-05-14T06:10:15.968Z,8.20
2023-05-14T06:13:04.489Z,8.83
2023-05-14T06:15:53.134Z,9.17
2023-05-14T06:18:41.653Z,7.87
2023-05-14T06:21:30.148Z,7.93
2023-05-14T06:24:19.999Z,8.30
2023-05-14T06:27:11.181Z,8.87
2023-05-14T06:29:59.688Z,8.20
2023-05-14T06:32:48.225Z,9.37
2023-05-14T06:35:37.021Z,8.47
2023-05-14T06:38:25.741Z,8.60
2023-05-14T06:41:14.234Z,9.40
2023-05-14T06:44:04.091Z,9.80
2023-05-14T06:46:52.502Z,9.30
2023-05-14T06:49:40.956Z,9.63
2023-05-14T06:52:29.459Z,9.20
2023-05-14T06:55:18.214Z,9.57
2023-05-14T06:58:07.485Z,8.97
2023-05-14T07:00:57.424Z,9.43
2023-05-14T07:03:45.916Z,9.17
2023-05-14T07:06:34.461Z,9.47
2023-05-14T07:09:23.020Z,9.40
2023-05-14T07:12:11.557Z,8.10
2023-05-14T07:15:00.006Z,8.93
2023-05-14T07:17:50.177Z,8.63
2023-05-14T07:20:39.346Z,9.40
2023-05-14T07:23:27.859Z,10.97
2023-05-14T07:26:16.349Z,9.57
2023-05-14T07:29:04.859Z,9.70
2023-05-14T07:31:53.901Z,8.07
2023-05-14T07:34:43.780Z,9.63
2023-05-14T07:37:32.270Z,8.17
2023-05-14T07:40:21.018Z,9.67
2023-05-14T07:43:09.568Z,7.77
2023-05-14T07:45:58.089Z,8.27
2023-05-14T07:48:46.794Z,7.80
2023-05-14T07:51:36.627Z,7.20
2023-05-14T07:54:25.318Z,8.37
2023-05-14T07:57:13.879Z,7.47
2023-05-14T08:00:02.401Z,7.90
2023-05-14T08:02:52.845Z,7.80
2023-05-14T08:05:41.733Z,8.07
2023-05-14T08:08:31.572Z,8.40
2023-05-14T08:11:20.053Z,7.90
2023-05-14T08:14:08.816Z,7.10
2023-05-14T08:16:57.331Z,7.03
2023-05-14T08:19:46.867Z,7.10
2023-05-14T08:22:35.290Z,7.10
2023-05-14T08:25:38.572Z,7.63
2023-05-14T08:28:46.223Z,7.87
2023-05-14T08:31:37.260Z,7.50
2023-05-14T08:34:36.656Z,7.50
2023-05-14T08:37:25.927Z,7.33
2023-05-14T08:40:19.870Z,7.37
2023-05-14T08:43:14.382Z,7.40
2023-05-14T08:46:08.782Z,7.90
2023-05-14T08:49:01.130Z,7.77
2023-05-14T08:51:49.922Z,7.07
2023-05-14T08:54:44.001Z,7.43
2023-05-14T08:57:34.265Z,6.60
2023-05-14T09:00:25.032Z,7.37
2023-05-14T09:03:14.990Z,6.23
2023-05-14T09:06:04.352Z,6.20
2023-05-14T09:08:52.908Z,6.77
2023-05-14T09:11:46.665Z,7.30
2023-05-14T09:14:35.477Z,6.50
2023-05-14T09:17:26.848Z,8.30
2023-05-14T09:20:16.018Z,6.17
2023-05-14T09:23:04.828Z,6.37
2023-05-14T09:25:53.553Z,5.70
2023-05-14T09:28:42.727Z,6.67
2023-05-14T09:31:31.933Z,6.77
2023-05-14T09:34:29.005Z,6.00
2023-05-14T09:37:17.530Z,6.30
2023-05-14T09:40:10.060Z,6.20
2023-05-14T09:42:58.514Z,6.77
2023-05-14T09:45:46.979Z,7.07
2023-05-14T09:48:35.566Z,5.33
2023-05-14T09:51:25.623Z,6.70
2023-05-14T09:54:14.104Z,5.70
2023-05-14T09:57:02.716Z,6.03
2023-05-14T09:59:51.212Z,5.23
2023-05-14T10:02:41.262Z,5.53
2023-05-14T10:05:30.204Z,5.87
2023-05-14T10:08:23.711Z,6.47
2023-05-14T10:11:15.349Z,5.40
2023-05-14T10:14:07.405Z,6.00
2023-05-14T10:16:57.409Z,4.80
2023-05-14T10:19:49.290Z,6.57
2023-05-14T10:22:37.782Z,5.67
2023-05-14T10:25:28.297Z,5.50
2023-05-14T10:28:17.095Z,6.20
2023-05-14T10:31:05.617Z,5.33
2023-05-14T10:33:55.023Z,4.60
2023-05-14T10:36:43.595Z,5.23
2023-05-14T10:39:45.170Z,7.47
2023-05-14T10:42:39.665Z,6.73
2023-05-14T10:45:28.546Z,5.33
2023-05-14T10:48:17.131Z,5.83
2023-05-14T10:51:08.609Z,6.63
2023-05-14T10:53:57.830Z,4.50
2023-05-14T10:56:47.115Z,4.93
2023-05-14T10:59:37.107Z,4.77
2023-05-14T11:02:26.829Z,4.37
2023-05-14T11:05:17.515Z,4.47
2023-05-14T11:08:09.483Z,5.00
2023-05-14T11:10:58.471Z,5.30
2023-05-14T11:13:47.403Z,5.37
2023-05-14T11:16:37.776Z,4.57
2023-05-14T11:19:26.280Z,5.80
2023-05-14T11:22:14.848Z,5.00
2023-05-14T11:25:03.656Z,5.13
2023-05-14T11:27:55.919Z,5.47
2023-05-14T11:30:44.921Z,5.60
2023-05-14T11:33:34.966Z,5.60
2023-05-14T11:36:23.676Z,5.30
2023-05-14T11:39:19.055Z,6.10
2023-05-14T11:42:14.502Z,6.33
2023-05-14T11:45:03.115Z,19.87
2023-05-14T11:47:51.640Z,6.60
2023-05-14T11:50:41.569Z,6.73
2023-05-14T11:53:31.440Z,5.87
2023-05-14T11:56:19.950Z,9.13
2023-05-14T11:59:08.483Z,6.17
2023-05-14T12:01:56.959Z,7.20
2023-05-14T12:04:46.029Z,6.83
2023-05-14T12:07:35.971Z,6.93
2023-05-14T12:10:24.613Z,6.23
2023-05-14T12:13:16.589Z,6.87
2023-05-14T12:16:05.466Z,6.17
2023-05-14T12:18:54.151Z,9.00
2023-05-14T12:21:45.009Z,6.80
2023-05-14T12:24:34.923Z,6.27
2023-05-14T12:27:24.624Z,5.70
2023-05-14T12:30:21.289Z,6.30
2023-05-14T12:33:10.796Z,6.00
2023-05-14T12:36:09.906Z,6.17
2023-05-14T12:39:03.746Z,5.23
2023-05-14T12:41:53.598Z,5.43
2023-05-14T12:44:42.115Z,5.80
2023-05-14T12:47:30.715Z,6.30
2023-05-14T12:50:19.366Z,6.00
2023-05-14T12:53:08.056Z,5.60
2023-05-14T12:55:56.491Z,5.47
2023-05-14T12:58:47.276Z,5.87
2023-05-14T13:01:35.893Z,6.20
2023-05-14T13:04:24.419Z,4.90
2023-05-14T13:07:13.174Z,4.87
2023-05-14T13:10:01.656Z,5.00
2023-05-14T13:12:50.665Z,4.20
2023-05-14T13:15:40.596Z,4.43
2023-05-14T13:18:29.282Z,5.03
2023-05-14T13:21:17.816Z,4.43
2023-05-14T13:24:06.746Z,5.53
2023-05-14T13:26:55.508Z,6.23
2023-05-14T13:29:44.104Z,5.73
2023-05-14T13:32:34.081Z,5.50
2023-05-14T13:35:22.799Z,5.50
2023-05-14T13:38:11.459Z,5.00
2023-05-14T13:41:02.505Z,6.17
2023-05-14T13:43:51.175Z,5.40
2023-05-14T13:46:39.766Z,4.77
2023-05-14T13:49:31.010Z,4.87
2023-05-14T13:52:19.541Z,5.50
2023-05-14T13:55:09.220Z,5.20
2023-05-14T13:57:59.316Z,6.70
2023-05-14T14:00:47.803Z,5.13
2023-05-14T14:03:36.235Z,4.87
2023-05-14T14:06:27.262Z,5.93
2023-05-14T14:09:15.863Z,5.57
2023-05-14T14:12:05.163Z,5.37
2023-05-14T14:14:53.740Z,4.10
2023-05-14T14:17:42.804Z,5.27
2023-05-14T14:20:32.104Z,5.07
2023-05-14T14:23:21.951Z,3.87
2023-05-14T14:26:10.425Z,5.07
2023-05-14T14:28:58.968Z,4.00
2023-05-14T14:31:47.515Z,4.53
2023-05-14T14:34:36.153Z,4.20
2023-05-14T14:37:24.606Z,4.50
2023-05-14T14:40:14.616Z,4.40
2023-05-14T14:43:03.193Z,4.60
2023-05-14T14:45:51.825Z,4.20
2023-05-14T14:48:41.242Z,4.90
2023-05-14T14:51:30.196Z,4.33
2023-05-14T14:54:18.906Z,5.00
2023-05-14T14:57:08.786Z,5.20
2023-05-14T14:59:57.302Z,4.57
2023-05-14T15:02:46.124Z,5.10
2023-05-14T15:05:34.735Z,5.60
2023-05-14T15:08:26.950Z,5.57
2023-05-14T15:11:15.619Z,5.60
2023-05-14T15:14:05.519Z,4.93
2023-05-14T15:16:54.118Z,4.40
2023-05-14T15:19:42.681Z,4.60
2023-05-14T15:22:31.166Z,5.13
2023-05-14T15:25:19.673Z,4.13
2023-05-14T15:28:08.269Z,7.47
2023-05-14T15:30:58.133Z,4.53
2023-05-14T15:33:46.599Z,4.07
2023-05-14T15:36:35.149Z,5.00
2023-05-14T15:39:23.594Z,4.80
2023-05-14T15:42:12.179Z,7.90
2023-05-14T15:45:00.845Z,4.60
2023-05-14T15:47:50.815Z,5.00
2023-05-14T15:50:39.502Z,4.10
2023-05-14T15:53:28.071Z,4.93
2023-05-14T15:56:16.574Z,4.60
2023-05-14T15:59:05.066Z,4.93
2023-05-14T16:01:53.605Z,4.73
2023-05-14T16:04:45.020Z,4.20
2023-05-14T16:07:33.629Z,4.57
2023-05-14T16:10:22.322Z,4.83
2023-05-14T16:13:11.254Z,4.30
2023-05-14T16:16:00.159Z,5.80
2023-05-14T16:18:48.696Z,5.80
2023-05-14T16:21:38.618Z,4.50
2023-05-14T16:24:27.083Z,5.10
2023-05-14T16:27:15.554Z,5.83
2023-05-14T16:30:04.552Z,4.70
2023-05-14T16:32:53.157Z,4.77
2023-05-14T16:35:41.642Z,4.57
2023-05-14T16:38:31.525Z,4.20
2023-05-14T16:41:20.047Z,4.70
2023-05-14T16:44:08.599Z,4.80
2023-05-14T16:46:57.583Z,5.13
2023-05-14T16:49:46.070Z,4.17
2023-05-14T16:52:34.589Z,6.90
2023-05-14T16:55:24.740Z,4.03
2023-05-14T16:58:13.430Z,4.67
2023-05-14T17:01:01.946Z,4.60
2023-05-14T17:03:50.414Z,4.93
2023-05-14T17:06:38.883Z,4.37
2023-05-14T17:09:27.452Z,3.83
2023-05-14T17:12:17.342Z,4.80
2023-05-14T17:15:07.112Z,4.90
2023-05-14T17:17:55.947Z,4.67
2023-05-14T17:20:44.798Z,4.40
2023-05-14T17:23:33.219Z,4.50
2023-05-14T17:26:21.832Z,4.67
2023-05-14T17:29:11.642Z,4.10
2023-05-14T17:32:00.446Z,5.23
2023-05-14T17:34:48.962Z,4.50
2023-05-14T17:37:37.519Z,4.20
2023-05-14T17:40:26.013Z,4.43
2023-05-14T17:43:14.569Z,4.17
2023-05-14T17:46:04.530Z,6.27
2023-05-14T17:48:53.068Z,5.20
2023-05-14T17:51:41.657Z,6.80
2023-05-14T17:54:30.217Z,6.20
2023-05-14T17:57:18.706Z,5.47
2023-05-14T18:00:08.632Z,6.10
2023-05-14T18:02:58.629Z,4.40
2023-05-14T18:05:47.281Z,5.77
2023-05-14T18:08:35.832Z,7.40
2023-05-14T18:11:24.297Z,5.00
2023-05-14T18:14:12.992Z,6.50
2023-05-14T18:17:01.594Z,5.33
2023-05-14T18:19:51.435Z,4.90
2023-05-14T18:22:39.906Z,4.43
2023-05-14T18:25:28.656Z,4.70
2023-05-14T18:28:18.563Z,5.70
2023-05-14T18:31:07.175Z,5.90
2023-05-14T18:33:55.763Z,5.83
2023-05-14T18:36:45.658Z,5.97
2023-05-14T18:39:34.141Z,8.03
2023-05-14T18:42:22.585Z,5.53
2023-05-14T18:45:12.150Z,5.90
2023-05-14T18:48:00.966Z,7.00
2023-05-14T18:50:49.605Z,6.40
2023-05-14T18:53:39.451Z,5.77
2023-05-14T18:56:28.059Z,5.50
2023-05-14T18:59:16.535Z,6.43
2023-05-14T19:02:05.171Z,5.50
2023-05-14T19:04:53.642Z,6.20
2023-05-14T19:07:43.723Z,7.10
2023-05-14T19:10:34.773Z,6.60
2023-05-14T19:13:23.773Z,6.30
2023-05-14T19:16:12.318Z,6.90
2023-05-14T19:19:01.355Z,6.20
2023-05-14T19:21:50.072Z,4.87
2023-05-14T19:24:38.753Z,4.90
2023-05-14T19:27:28.735Z,5.50
2023-05-14T19:30:17.469Z,5.40
2023-05-14T19:33:06.280Z,6.93
2023-05-14T19:35:54.816Z,5.70
2023-05-14T19:38:43.446Z,6.03
2023-05-14T19:41:32.000Z,5.90
2023-05-14T19:44:21.883Z,6.13
2023-05-14T19:47:10.507Z,6.67
2023-05-14T19:49:59.123Z,5.87
2023-05-14T19:52:47.564Z,6.27
2023-05-14T19:55:36.086Z,5.87
2023-05-14T19:58:24.620Z,6.30
2023-05-14T20:01:14.625Z,5.47
2023-05-14T20:04:03.285Z,5.90
2023-05-14T20:06:52.544Z,6.63
2023-05-14T20:09:41.024Z,5.83
2023-05-14T20:12:29.566Z,5.53
2023-05-14T20:15:18.089Z,6.60
2023-05-14T20:18:08.070Z,6.10
2023-05-14T20:20:56.691Z,6.07
2023-05-14T20:23:45.220Z,5.27
2023-05-14T20:26:33.942Z,5.50
2023-05-14T20:29:22.555Z,8.13
2023-05-14T20:32:11.162Z,5.40
2023-05-14T20:35:01.941Z,5.90
2023-05-14T20:37:50.469Z,5.47
2023-05-14T20:40:38.991Z,7.43
2023-05-14T20:43:27.810Z,6.53
2023-05-14T20:46:16.357Z,6.40
2023-05-14T20:49:04.848Z,7.63
2023-05-14T20:51:54.809Z,6.00
2023-05-14T20:54:43.922Z,6.53
2023-05-14T20:57:32.488Z,6.63
2023-05-14T21:00:21.276Z,6.20
2023-05-14T21:03:10.030Z,5.40
2023-05-14T21:06:00.421Z,6.87
2023-05-14T21:08:50.328Z,6.00
2023-05-14T21:11:38.830Z,6.13
2023-05-14T21:14:27.288Z,6.27
2023-05-14T21:17:18.237Z,6.00
2023-05-14T21:20:08.066Z,6.57
2023-05-14T21:22:56.566Z,6.60
2023-05-14T21:25:46.432Z,6.43
2023-05-14T21:28:34.979Z,6.40
2023-05-14T21:31:23.474Z,6.97
2023-05-14T21:34:12.072Z,6.50
2023-05-14T21:37:00.530Z,6.23
2023-05-14T21:39:49.096Z,6.37
2023-05-14T21:42:39.510Z,6.80
2023-05-14T21:45:28.304Z,5.97
2023-05-14T21:48:17.184Z,7.37
2023-05-14T21:51:06.303Z,7.63
2023-05-14T21:53:54.789Z,6.90
2023-05-14T21:56:43.265Z,6.80
2023-05-14T21:59:34.611Z,7.60
2023-05-14T22:02:23.380Z,6.60
2023-05-14T22:05:11.946Z,6.93
2023-05-14T22:08:00.643Z,7.90
2023-05-14T22:10:49.157Z,10.13
2023-05-14T22:13:40.922Z,7.40
2023-05-14T22:16:30.893Z,6.60
2023-05-14T22:19:19.475Z,6.43
2023-05-14T22:22:08.012Z,7.20
2023-05-14T22:24:56.684Z,7.23
2023-05-14T22:27:45.258Z,6.10
2023-05-14T22:30:33.760Z,6.67
2023-05-14T22:33:23.707Z,7.17
2023-05-14T22:36:12.300Z,6.50
2023-05-14T22:39:00.935Z,7.03
2023-05-14T22:41:54.709Z,8.13
2023-05-14T22:44:43.210Z,7.57
2023-05-14T22:47:31.813Z,6.30
2023-05-14T22:50:21.682Z,6.83
2023-05-14T22:53:10.177Z,7.53
2023-05-14T22:55:58.659Z,7.37
2023-05-14T22:58:47.700Z,7.83
2023-05-14T23:01:36.217Z,7.73
2023-05-14T23:04:24.825Z,8.00
2023-05-14T23:07:14.941Z,7.50
2023-05-14T23:10:04.076Z,7.87
2023-05-14T23:12:52.531Z,8.10
2023-05-14T23:15:40.997Z,7.63
2023-05-14T23:18:30.681Z,7.00
2023-05-14T23:21:19.393Z,7.93
2023-05-14T23:24:09.654Z,10.50
2023-05-14T23:26:58.320Z,8.30
2023-05-14T23:29:46.773Z,7.87
2023-05-14T23:32:35.345Z,7.00
2023-05-14T23:35:24.070Z,7.60
2023-05-14T23:38:12.874Z,8.40
2023-05-14T23:41:03.006Z,8.10
2023-05-14T23:43:51.736Z,7.10
2023-05-14T23:46:40.540Z,7.17
2023-05-14T23:49:29.261Z,7.80
2023-05-14T23:52:17.917Z,8.60
2023-05-14T23:55:07.404Z,8.23
2023-05-14T23:57:57.214Z,7.33
